Time;durP1;ratioP1;P1;durP2;ratioP2;P2;SDS_P1;SDS_P2;PMS_P1;PMS_P2;Temp;Humidity;BMP_temperature;BMP_pressure;BME280_temperature;BME280_humidity;BME280_pressure;Samples;Min_cycle;Max_cycle;Signal;HPM_P1;HPM_P2
2023/06/23 00:00:19;;;;;;;14.48;7.97;;;18.20;99.90;;;;;;5001529;28;20117;-74
2023/06/23 00:02:45;;;;;;;14.60;8.48;;;18.20;99.90;;;;;;4982411;28;20046;-74
2023/06/23 00:05:11;;;;;;;11.93;7.53;;;18.20;99.90;;;;;;4983274;28;20108;-74
2023/06/23 00:07:37;;;;;;;13.30;7.63;;;18.10;99.90;;;;;;4985212;28;20067;-75
2023/06/23 00:10:05;;;;;;;15.18;7.97;;;18.10;99.90;;;;;;4985498;28;20124;-75
2023/06/23 00:12:35;;;;;;;13.15;8.15;;;18.10;99.90;;;;;;4999879;28;20061;-75
2023/06/23 00:15:07;;;;;;;15.15;8.13;;;18.10;99.90;;;;;;5006266;28;20049;-75
2023/06/23 00:17:32;;;;;;;10.38;6.90;;;18.00;99.90;;;;;;5000572;28;20054;-74
2023/06/23 00:19:58;;;;;;;13.88;8.43;;;18.10;99.90;;;;;;4999628;28;20038;-75
2023/06/23 00:22:25;;;;;;;13.27;7.55;;;18.00;99.90;;;;;;4999840;28;20129;-74
2023/06/23 00:24:50;;;;;;;15.00;8.48;;;18.00;99.90;;;;;;5002919;28;20095;-75
2023/06/23 00:27:16;;;;;;;11.48;8.07;;;18.00;99.90;;;;;;4985067;28;20046;-74
2023/06/23 00:29:42;;;;;;;13.90;8.57;;;18.00;99.90;;;;;;4982238;28;20058;-74
2023/06/23 00:32:08;;;;;;;13.95;9.00;;;18.00;99.90;;;;;;4981898;28;20409;-74
2023/06/23 00:34:33;;;;;;;12.60;8.48;;;18.00;99.90;;;;;;5007429;28;20041;-75
2023/06/23 00:36:59;;;;;;;15.25;8.10;;;18.00;99.90;;;;;;4981595;28;20065;-74
2023/06/23 00:39:24;;;;;;;13.45;9.63;;;18.00;99.90;;;;;;4981639;28;20405;-74
2023/06/23 00:41:50;;;;;;;12.48;8.85;;;18.00;99.90;;;;;;4966623;28;20062;-74
2023/06/23 00:44:16;;;;;;;14.23;8.55;;;18.00;99.90;;;;;;5002168;28;20046;-74
2023/06/23 00:46:44;;;;;;;12.82;9.13;;;18.00;99.90;;;;;;4984703;28;20065;-73
2023/06/23 00:49:15;;;;;;;16.77;9.27;;;17.90;99.90;;;;;;4965726;28;20054;-74
2023/06/23 00:51:41;;;;;;;14.93;9.23;;;17.90;99.90;;;;;;4999188;28;20114;-74
2023/06/23 00:54:07;;;;;;;14.20;8.85;;;17.90;99.90;;;;;;5007447;28;20107;-73
2023/06/23 00:56:33;;;;;;;15.60;9.63;;;17.90;99.90;;;;;;4981580;28;20046;-74
2023/06/23 00:58:59;;;;;;;15.75;9.95;;;17.90;99.90;;;;;;5007003;28;20050;-74
2023/06/23 01:01:25;;;;;;;11.60;9.15;;;17.90;99.90;;;;;;4981452;28;20054;-73
2023/06/23 01:03:51;;;;;;;13.13;8.98;;;17.90;99.90;;;;;;4998928;28;20054;-73
2023/06/23 01:06:37;;;;;;;14.00;9.38;;;17.80;99.90;;;;;;4989711;28;20077;-74
2023/06/23 01:09:31;;;;;;;20.20;9.80;;;17.90;99.90;;;;;;4999064;28;20497;-73
2023/06/23 01:12:25;;;;;;;15.52;9.85;;;17.80;99.90;;;;;;4906488;29;20102;-74
2023/06/23 01:15:25;;;;;;;12.32;9.13;;;17.80;99.90;;;;;;4919073;29;20048;-74
2023/06/23 01:18:13;;;;;;;14.30;10.07;;;17.70;99.90;;;;;;4914928;29;20064;-73
2023/06/23 01:20:41;;;;;;;16.58;9.60;;;17.70;99.90;;;;;;4921976;29;21374;-74
2023/06/23 01:23:11;;;;;;;16.13;10.10;;;17.70;99.90;;;;;;4906482;29;20060;-73
2023/06/23 01:26:04;;;;;;;13.75;9.10;;;17.70;99.90;;;;;;4904909;29;20067;-74
2023/06/23 01:28:54;;;;;;;16.17;9.77;;;17.70;99.90;;;;;;4919528;29;20536;-74
2023/06/23 01:31:31;;;;;;;15.20;8.90;;;17.70;99.90;;;;;;4922078;29;20124;-73
2023/06/23 01:34:01;;;;;;;11.98;9.43;;;17.60;99.90;;;;;;4919462;29;20044;-74
2023/06/23 01:36:34;;;;;;;13.77;9.60;;;17.60;99.90;;;;;;4903604;29;20632;-73
2023/06/23 01:39:03;;;;;;;16.35;9.60;;;17.60;99.90;;;;;;4922103;29;20127;-74
2023/06/23 01:41:33;;;;;;;15.95;9.88;;;17.60;99.90;;;;;;4924128;29;20040;-74
2023/06/23 01:44:04;;;;;;;13.27;9.65;;;17.60;99.90;;;;;;4923643;29;20047;-74
2023/06/23 01:46:35;;;;;;;16.88;10.05;;;17.50;99.90;;;;;;4922461;29;20036;-74
2023/06/23 01:49:10;;;;;;;17.23;9.63;;;17.50;99.90;;;;;;4973227;28;20224;-74
2023/06/23 01:51:43;;;;;;;18.92;9.73;;;17.50;99.90;;;;;;4984813;28;20050;-73
2023/06/23 01:54:10;;;;;;;17.13;9.88;;;17.50;99.90;;;;;;5004866;28;20482;-73
2023/06/23 01:56:38;;;;;;;18.05;10.65;;;17.50;99.90;;;;;;4988141;28;20060;-74
2023/06/23 01:59:05;;;;;;;14.73;9.70;;;17.40;99.90;;;;;;4986356;28;20049;-74
2023/06/23 02:01:32;;;;;;;19.65;10.57;;;17.40;99.90;;;;;;5001789;28;20517;-74
2023/06/23 02:04:00;;;;;;;15.68;9.60;;;17.40;99.90;;;;;;4984380;28;20060;-74
2023/06/23 02:06:27;;;;;;;13.70;9.60;;;17.40;99.90;;;;;;5004788;28;20053;-74
2023/06/23 02:08:54;;;;;;;16.52;9.80;;;17.70;99.90;;;;;;4971054;28;20054;-73
2023/06/23 02:11:22;;;;;;;14.85;9.10;;;17.40;99.90;;;;;;5003437;28;20143;-74
2023/06/23 02:13:50;;;;;;;12.82;8.88;;;17.40;99.90;;;;;;5001820;28;20058;-74
2023/06/23 02:16:16;;;;;;;13.27;8.73;;;17.40;99.90;;;;;;5002004;28;20050;-73
2023/06/23 02:18:42;;;;;;;14.38;8.70;;;17.40;99.90;;;;;;5005078;28;20410;-73
2023/06/23 02:21:10;;;;;;;18.73;8.57;;;17.40;99.90;;;;;;5004855;28;20481;-73
2023/06/23 02:23:36;;;;;;;15.57;9.20;;;17.30;99.90;;;;;;5002633;28;20037;-73
2023/06/23 02:26:03;;;;;;;11.98;8.50;;;17.30;99.90;;;;;;5001492;28;20054;-73
2023/06/23 02:28:29;;;;;;;16.90;7.93;;;17.30;99.90;;;;;;4984264;28;20078;-74
2023/06/23 02:30:55;;;;;;;13.30;8.05;;;17.30;99.90;;;;;;4986804;28;20042;-73
2023/06/23 02:33:21;;;;;;;10.05;7.60;;;17.30;99.90;;;;;;5004838;28;20780;-73
2023/06/23 02:35:50;;;;;;;10.85;7.78;;;17.30;99.90;;;;;;5003072;28;20065;-73
2023/06/23 02:38:21;;;;;;;15.27;7.55;;;17.20;99.90;;;;;;5001363;28;20115;-73
2023/06/23 02:40:47;;;;;;;10.25;7.43;;;17.20;99.90;;;;;;4984646;28;20113;-74
2023/06/23 02:43:26;;;;;;;14.70;7.82;;;17.20;99.90;;;;;;4986739;28;20054;-74
2023/06/23 02:45:58;;;;;;;10.90;6.97;;;17.20;99.90;;;;;;5003029;28;20053;-74
2023/06/23 02:48:31;;;;;;;11.82;7.22;;;17.20;99.90;;;;;;4983553;28;20046;-74
2023/06/23 02:51:00;;;;;;;11.50;6.97;;;17.20;99.90;;;;;;4984890;28;20061;-74
2023/06/23 02:53:39;;;;;;;11.15;6.93;;;17.10;99.90;;;;;;4986355;28;20057;-74
2023/06/23 02:56:11;;;;;;;10.77;6.38;;;17.10;99.90;;;;;;4985140;28;20405;-74
2023/06/23 02:58:38;;;;;;;14.30;7.35;;;17.10;99.90;;;;;;4983520;28;20054;-73
2023/06/23 03:01:06;;;;;;;11.98;7.07;;;17.10;99.90;;;;;;4983954;28;20046;-73
2023/06/23 03:03:34;;;;;;;14.02;8.38;;;17.00;99.90;;;;;;4986247;28;20041;-74
2023/06/23 03:06:00;;;;;;;11.40;6.95;;;17.00;99.90;;;;;;4986321;28;20494;-73
2023/06/23 03:08:26;;;;;;;15.45;6.65;;;17.00;99.90;;;;;;4983433;28;20038;-73
2023/06/23 03:10:52;;;;;;;13.23;6.40;;;17.00;99.90;;;;;;4983147;28;20065;-74
2023/06/23 03:13:18;;;;;;;12.45;6.63;;;17.00;99.90;;;;;;5001789;28;20100;-74
2023/06/23 03:15:49;;;;;;;10.95;6.47;;;16.90;99.90;;;;;;5003909;28;20058;-74
2023/06/23 03:18:19;;;;;;;15.18;6.68;;;17.00;99.90;;;;;;4985952;28;20688;-74
2023/06/23 03:20:50;;;;;;;8.52;5.85;;;16.90;99.90;;;;;;4973776;28;20070;-74
2023/06/23 03:23:18;;;;;;;11.10;6.53;;;16.80;99.90;;;;;;5000292;28;20049;-73
2023/06/23 03:25:46;;;;;;;12.13;6.45;;;16.80;99.90;;;;;;4985657;28;20045;-73
2023/06/23 03:28:17;;;;;;;11.40;6.55;;;16.80;99.90;;;;;;4986314;28;20058;-73
2023/06/23 03:30:48;;;;;;;9.88;6.47;;;16.70;99.90;;;;;;4983903;28;20053;-73
2023/06/23 03:33:34;;;;;;;13.10;6.35;;;16.70;99.90;;;;;;5000155;28;20076;-73
2023/06/23 03:36:12;;;;;;;10.07;6.35;;;16.60;99.90;;;;;;4982898;28;20735;-73
2023/06/23 03:38:54;;;;;;;14.82;6.53;;;16.60;99.90;;;;;;5000195;28;20058;-73
2023/06/23 03:41:20;;;;;;;12.88;7.22;;;16.60;99.90;;;;;;5003526;28;20054;-73
2023/06/23 03:43:53;;;;;;;13.25;6.95;;;16.50;99.90;;;;;;5002676;28;20041;-73
2023/06/23 03:46:24;;;;;;;10.07;6.13;;;16.40;99.90;;;;;;5000278;28;20046;-73
2023/06/23 03:48:52;;;;;;;9.40;6.55;;;16.40;99.90;;;;;;4982843;28;20129;-74
2023/06/23 03:51:20;;;;;;;12.02;6.80;;;16.40;99.90;;;;;;4968845;28;20104;-73
2023/06/23 03:53:47;;;;;;;11.50;6.65;;;16.30;99.90;;;;;;5003250;28;20057;-74
2023/06/23 03:56:16;;;;;;;10.00;7.22;;;16.30;99.90;;;;;;4982674;28;20062;-73
2023/06/23 03:58:43;;;;;;;14.10;6.72;;;16.30;99.90;;;;;;4999887;28;20805;-74
2023/06/23 04:01:09;;;;;;;9.40;7.25;;;16.20;99.90;;;;;;5001238;28;20047;-74
2023/06/23 04:03:37;;;;;;;14.10;7.97;;;16.30;99.90;;;;;;4984582;28;20128;-73
2023/06/23 04:06:05;;;;;;;11.35;6.80;;;16.20;99.90;;;;;;5002878;28;20899;-73
2023/06/23 04:08:32;;;;;;;10.40;6.93;;;16.20;99.90;;;;;;4999781;28;20099;-73
2023/06/23 04:10:59;;;;;;;13.55;7.57;;;16.10;99.90;;;;;;4982277;28;20054;-74
2023/06/23 04:13:31;;;;;;;10.77;6.80;;;16.10;99.90;;;;;;4984459;28;20091;-73
2023/06/23 04:15:58;;;;;;;15.68;7.95;;;16.10;99.90;;;;;;5002913;28;20053;-74
2023/06/23 04:18:27;;;;;;;11.80;7.35;;;16.10;99.90;;;;;;4983564;28;20049;-73
2023/06/23 04:20:57;;;;;;;10.00;6.60;;;16.10;99.90;;;;;;4981663;28;20054;-73
2023/06/23 04:23:25;;;;;;;11.15;7.57;;;16.10;99.90;;;;;;4982393;28;20054;-73
2023/06/23 04:25:51;;;;;;;9.68;7.43;;;16.00;99.90;;;;;;4984873;28;20046;-73
2023/06/23 04:28:22;;;;;;;14.27;7.18;;;16.00;99.90;;;;;;4969036;28;20587;-74
2023/06/23 04:30:48;;;;;;;10.82;7.97;;;15.90;99.90;;;;;;4999736;28;20053;-74
2023/06/23 04:33:14;;;;;;;11.82;8.27;;;15.90;99.90;;;;;;4981992;28;20663;-73
2023/06/23 04:35:40;;;;;;;12.93;8.43;;;16.00;99.90;;;;;;5000273;28;20129;-73
2023/06/23 04:38:13;;;;;;;11.43;8.77;;;15.90;99.90;;;;;;4984786;28;20088;-73
2023/06/23 04:40:44;;;;;;;12.48;9.18;;;16.00;99.90;;;;;;5001699;28;20053;-73
2023/06/23 04:43:13;;;;;;;11.70;8.70;;;16.00;99.90;;;;;;4999223;28;20125;-73
2023/06/23 04:46:02;;;;;;;14.38;8.43;;;16.00;99.90;;;;;;4999566;28;20049;-73
2023/06/23 04:48:34;;;;;;;11.75;8.45;;;16.00;99.90;;;;;;4999209;28;20056;-73
2023/06/23 04:51:05;;;;;;;14.25;9.85;;;16.00;99.90;;;;;;4983183;28;20498;-73
2023/06/23 04:53:37;;;;;;;12.93;8.90;;;16.10;99.90;;;;;;4984743;28;20045;-73
2023/06/23 04:56:05;;;;;;;13.70;9.05;;;16.10;99.90;;;;;;4983011;28;20061;-73
2023/06/23 04:58:38;;;;;;;13.65;9.85;;;16.10;99.90;;;;;;4981825;28;20065;-73
2023/06/23 05:01:08;;;;;;;17.40;9.52;;;16.10;99.90;;;;;;4982347;28;20054;-73
2023/06/23 05:03:36;;;;;;;13.32;9.75;;;16.20;99.90;;;;;;5002172;28;20132;-73
2023/06/23 05:06:03;;;;;;;15.20;10.32;;;16.20;99.90;;;;;;4984634;28;20136;-73
2023/06/23 05:08:30;;;;;;;14.82;9.95;;;16.30;99.90;;;;;;4981306;28;20050;-73
2023/06/23 05:11:05;;;;;;;11.77;9.43;;;16.30;99.90;;;;;;4998938;28;20042;-73
2023/06/23 05:13:32;;;;;;;14.57;9.30;;;16.40;99.90;;;;;;5001901;28;20397;-74
2023/06/23 05:16:00;;;;;;;16.00;10.13;;;16.40;99.90;;;;;;5004483;28;20129;-73
2023/06/23 05:18:28;;;;;;;13.00;9.07;;;16.50;99.90;;;;;;4986790;28;20045;-73
2023/06/23 05:20:58;;;;;;;13.05;7.88;;;16.60;99.90;;;;;;4985330;28;20089;-73
2023/06/23 05:23:26;;;;;;;13.95;8.65;;;16.60;99.90;;;;;;5003637;28;20093;-73
2023/06/23 05:25:56;;;;;;;10.27;8.10;;;16.60;99.90;;;;;;5005956;28;20056;-73
2023/06/23 05:28:24;;;;;;;15.63;8.27;;;16.70;99.90;;;;;;4988269;28;20050;-73
2023/06/23 05:30:52;;;;;;;13.90;9.40;;;16.70;99.90;;;;;;4992659;28;20498;-73
2023/06/23 05:33:19;;;;;;;10.98;8.18;;;16.70;99.90;;;;;;5002749;28;20400;-73
2023/06/23 05:35:46;;;;;;;14.35;9.07;;;16.70;99.90;;;;;;4986410;28;20086;-73
2023/06/23 05:38:14;;;;;;;12.45;9.10;;;16.70;99.90;;;;;;5005658;28;20492;-75
2023/06/23 05:40:40;;;;;;;11.90;9.85;;;16.70;99.90;;;;;;5004832;28;20058;-74
2023/06/23 05:43:06;;;;;;;13.70;9.07;;;16.70;99.90;;;;;;5001343;28;20117;-74
2023/06/23 05:45:32;;;;;;;15.77;9.45;;;16.70;99.90;;;;;;5002502;28;20370;-75
2023/06/23 05:48:07;;;;;;;15.15;9.63;;;16.80;99.90;;;;;;5004274;28;20453;-74
2023/06/23 05:50:38;;;;;;;15.18;10.27;;;16.90;99.90;;;;;;5005322;28;20555;-74
2023/06/23 05:53:10;;;;;;;13.05;10.40;;;17.00;99.90;;;;;;4985537;28;20053;-74
2023/06/23 05:55:41;;;;;;;16.17;9.82;;;17.10;99.90;;;;;;4984538;28;20046;-74
2023/06/23 05:58:11;;;;;;;13.52;9.10;;;17.20;99.90;;;;;;4985944;28;20069;-74
2023/06/23 06:00:42;;;;;;;15.32;9.32;;;17.30;99.90;;;;;;5005260;28;20191;-73
2023/06/23 06:03:12;;;;;;;14.40;9.10;;;17.40;99.90;;;;;;4986671;28;20497;-73
2023/06/23 06:05:44;;;;;;;16.63;8.40;;;17.60;99.90;;;;;;4967947;28;20536;-74
2023/06/23 06:08:11;;;;;;;11.48;7.32;;;17.70;99.90;;;;;;5002866;28;20176;-74
2023/06/23 06:10:38;;;;;;;15.82;9.20;;;17.80;99.90;;;;;;4987367;28;20042;-74
2023/06/23 06:13:05;;;;;;;9.95;7.85;;;18.00;99.90;;;;;;4987139;28;20516;-74
2023/06/23 06:15:32;;;;;;;11.50;7.82;;;18.00;99.90;;;;;;5002368;28;20046;-74
2023/06/23 06:18:03;;;;;;;11.52;7.85;;;18.20;99.90;;;;;;4984471;28;20123;-73
2023/06/23 06:20:30;;;;;;;12.82;8.25;;;18.30;99.90;;;;;;4985956;28;20050;-74
2023/06/23 06:22:57;;;;;;;13.80;8.18;;;18.40;99.90;;;;;;5004722;28;20099;-74
2023/06/23 06:25:26;;;;;;;11.88;8.45;;;18.50;99.90;;;;;;4986800;28;20045;-74
2023/06/23 06:27:53;;;;;;;11.18;8.02;;;18.70;99.90;;;;;;5000811;28;20091;-74
2023/06/23 06:30:21;;;;;;;12.27;7.63;;;18.80;99.90;;;;;;4984129;28;20051;-74
2023/06/23 06:32:49;;;;;;;12.32;7.00;;;19.00;99.90;;;;;;4986550;28;20065;-74
2023/06/23 06:35:15;;;;;;;9.65;6.78;;;19.10;99.90;;;;;;4987511;28;20124;-74
2023/06/23 06:37:47;;;;;;;11.07;6.43;;;19.30;99.90;;;;;;5003413;28;20405;-74
2023/06/23 06:40:17;;;;;;;12.07;7.13;;;19.60;99.90;;;;;;5001526;28;20059;-74
2023/06/23 06:42:43;;;;;;;10.25;6.72;;;19.70;99.90;;;;;;4984543;28;20748;-74
2023/06/23 06:45:09;;;;;;;9.32;6.15;;;19.90;99.90;;;;;;5004560;28;20042;-74
2023/06/23 06:47:40;;;;;;;12.38;6.38;;;20.20;99.90;;;;;;4987031;28;20494;-75
2023/06/23 06:50:08;;;;;;;8.90;5.95;;;20.40;99.90;;;;;;4983837;28;20057;-74
2023/06/23 06:52:36;;;;;;;8.38;6.18;;;20.60;99.90;;;;;;4983762;28;20128;-74
2023/06/23 06:55:03;;;;;;;8.55;5.15;;;20.70;99.90;;;;;;5002586;28;20138;-74
2023/06/23 06:57:30;;;;;;;7.70;5.43;;;20.90;99.90;;;;;;4986883;28;20144;-75
2023/06/23 06:59:56;;;;;;;14.20;5.63;;;21.10;99.90;;;;;;4986778;28;20038;-74
2023/06/23 07:02:22;;;;;;;9.77;5.15;;;21.30;99.90;;;;;;5001090;28;20069;-74
2023/06/23 07:04:48;;;;;;;10.25;4.43;;;21.70;99.90;;;;;;4983331;28;20047;-74
2023/06/23 07:07:15;;;;;;;6.70;4.10;;;21.80;99.90;;;;;;4984883;28;20516;-75
2023/06/23 07:09:40;;;;;;;7.35;3.90;;;22.00;99.90;;;;;;4986146;28;20041;-75
2023/06/23 07:12:06;;;;;;;8.32;3.53;;;22.30;99.90;;;;;;4986323;28;20508;-75
2023/06/23 07:14:32;;;;;;;7.68;3.65;;;22.60;99.90;;;;;;4983112;28;20042;-75
2023/06/23 07:16:58;;;;;;;5.72;3.47;;;22.60;99.90;;;;;;4983139;28;20105;-74
2023/06/23 07:19:23;;;;;;;11.10;3.15;;;22.90;99.90;;;;;;5002078;28;20148;-74
2023/06/23 07:21:49;;;;;;;5.57;3.00;;;23.10;99.90;;;;;;5003736;28;20565;-74
2023/06/23 07:24:15;;;;;;;6.30;3.08;;;23.20;99.90;;;;;;5003674;28;20547;-75
2023/06/23 07:26:41;;;;;;;4.78;2.92;;;23.40;99.90;;;;;;5001100;28;20046;-74
2023/06/23 07:29:07;;;;;;;5.30;3.53;;;23.70;99.90;;;;;;4983021;28;20101;-75
2023/06/23 07:31:35;;;;;;;6.05;3.42;;;23.40;99.90;;;;;;5001276;28;20137;-74
2023/06/23 07:34:00;;;;;;;7.25;3.63;;;23.40;99.90;;;;;;4985480;28;20046;-75
2023/06/23 07:36:26;;;;;;;5.78;3.20;;;23.60;99.90;;;;;;4985699;28;20045;-74
2023/06/23 07:38:52;;;;;;;7.60;3.53;;;23.70;99.90;;;;;;4983299;28;20527;-75
2023/06/23 07:41:17;;;;;;;6.18;4.45;;;23.80;99.90;;;;;;4982492;28;20474;-74
2023/06/23 07:43:43;;;;;;;6.85;3.88;;;23.90;99.90;;;;;;5001068;28;20046;-75
2023/06/23 07:46:10;;;;;;;7.22;3.38;;;23.90;99.90;;;;;;5003666;28;20046;-76
2023/06/23 07:48:36;;;;;;;4.20;2.75;;;24.00;99.90;;;;;;4985768;28;20049;-75
2023/06/23 07:51:02;;;;;;;5.30;3.47;;;24.10;99.90;;;;;;4982902;28;20126;-75
2023/06/23 07:53:28;;;;;;;7.53;3.80;;;24.00;99.90;;;;;;4982596;28;20125;-76
2023/06/23 07:55:53;;;;;;;6.50;4.03;;;24.40;99.90;;;;;;4982425;28;20038;-75
2023/06/23 07:58:19;;;;;;;6.10;4.15;;;24.60;99.90;;;;;;4985522;28;20038;-75
2023/06/23 08:00:46;;;;;;;9.90;5.88;;;24.50;99.90;;;;;;5003333;28;20061;-75
2023/06/23 08:03:12;;;;;;;8.98;4.97;;;24.70;99.90;;;;;;4983568;28;20068;-76
2023/06/23 08:05:38;;;;;;;8.15;5.28;;;24.80;99.90;;;;;;4982214;28;20128;-75
2023/06/23 08:08:04;;;;;;;7.95;5.43;;;24.80;99.90;;;;;;5000088;28;20038;-75
2023/06/23 08:10:30;;;;;;;7.30;5.07;;;24.90;99.90;;;;;;4984964;28;20049;-75
2023/06/23 08:12:55;;;;;;;8.90;4.75;;;25.00;99.90;;;;;;5002924;28;20496;-75
2023/06/23 08:15:21;;;;;;;9.55;4.10;;;25.10;99.90;;;;;;5001131;28;20038;-75
2023/06/23 08:17:48;;;;;;;8.27;4.18;;;24.90;99.90;;;;;;4981925;28;20058;-75
2023/06/23 08:20:14;;;;;;;8.45;4.30;;;25.10;99.90;;;;;;4982031;28;20078;-75
2023/06/23 08:22:40;;;;;;;5.35;3.40;;;25.20;99.90;;;;;;4985155;28;20077;-75
2023/06/23 08:25:07;;;;;;;4.95;3.47;;;25.10;99.90;;;;;;5002673;28;20053;-75
2023/06/23 08:27:33;;;;;;;5.80;3.42;;;25.20;99.90;;;;;;4982998;28;20050;-75
2023/06/23 08:29:58;;;;;;;5.00;3.20;;;25.10;99.90;;;;;;4965879;28;20065;-75
2023/06/23 08:32:24;;;;;;;6.32;3.28;;;25.20;99.90;;;;;;4982089;28;20046;-75
2023/06/23 08:34:50;;;;;;;6.28;3.28;;;25.40;99.90;;;;;;5002358;28;20041;-75
2023/06/23 08:37:15;;;;;;;7.03;3.33;;;25.60;99.90;;;;;;5002466;28;20452;-75
2023/06/23 08:39:41;;;;;;;8.20;3.85;;;25.60;99.90;;;;;;4983486;28;20157;-75
2023/06/23 08:42:07;;;;;;;5.63;3.53;;;25.60;99.90;;;;;;4981168;28;20053;-76
2023/06/23 08:44:36;;;;;;;6.35;3.92;;;25.60;99.90;;;;;;4965076;28;20109;-75
2023/06/23 08:47:04;;;;;;;6.25;3.20;;;25.60;99.90;;;;;;4984673;28;20046;-75
2023/06/23 08:49:37;;;;;;;8.18;4.00;;;25.90;99.90;;;;;;5002467;28;20124;-74
2023/06/23 08:52:04;;;;;;;10.45;4.47;;;26.00;99.90;;;;;;4982462;28;20494;-76
2023/06/23 08:54:30;;;;;;;7.82;4.47;;;26.10;99.90;;;;;;4981544;28;20121;-76
2023/06/23 08:56:56;;;;;;;7.10;4.13;;;26.20;99.90;;;;;;4982070;28;20125;-76
2023/06/23 08:59:21;;;;;;;7.75;4.05;;;26.30;99.90;;;;;;4984605;28;20053;-76
2023/06/23 09:01:47;;;;;;;5.63;3.75;;;26.40;99.90;;;;;;4984976;28;20050;-76
2023/06/23 09:04:14;;;;;;;6.50;3.70;;;26.40;99.90;;;;;;4982642;28;20053;-76
2023/06/23 09:06:40;;;;;;;9.52;4.15;;;26.30;99.90;;;;;;4999540;28;20046;-75
2023/06/23 09:09:06;;;;;;;6.03;3.78;;;26.10;99.90;;;;;;4982251;28;20112;-75
2023/06/23 09:11:32;;;;;;;8.05;3.88;;;26.20;99.90;;;;;;5002026;28;20121;-77
2023/06/23 09:14:00;;;;;;;8.43;4.28;;;26.00;99.90;;;;;;5001915;28;20383;-75
2023/06/23 09:16:27;;;;;;;7.53;3.80;;;25.90;99.90;;;;;;4999924;28;20053;-76
2023/06/23 09:18:53;;;;;;;6.97;4.10;;;26.00;99.90;;;;;;4998987;28;20153;-75
2023/06/23 09:21:20;;;;;;;5.90;3.45;;;26.10;99.90;;;;;;4999578;28;20397;-75
2023/06/23 09:24:03;;;;;;;4.72;2.95;;;26.20;99.90;;;;;;4984885;28;20058;-75
2023/06/23 09:26:43;;;;;;;4.18;2.65;;;26.20;99.90;;;;;;5000875;28;20128;-75
2023/06/23 09:29:21;;;;;;;6.03;3.40;;;26.10;99.90;;;;;;4987711;28;20089;-75
2023/06/23 09:31:52;;;;;;;7.13;2.45;;;26.20;99.50;;;;;;4981386;28;20046;-75
2023/06/23 09:34:24;;;;;;;4.13;2.05;;;26.10;98.80;;;;;;4981688;28;20100;-76
2023/06/23 09:36:52;;;;;;;5.03;2.80;;;26.30;99.80;;;;;;4964706;28;20063;-75
2023/06/23 09:39:18;;;;;;;5.53;3.58;;;26.40;99.40;;;;;;4998631;28;20556;-75
2023/06/23 09:41:57;;;;;;;4.55;2.70;;;26.40;99.90;;;;;;4982537;28;20050;-76
2023/06/23 09:44:38;;;;;;;6.30;3.63;;;26.40;99.90;;;;;;4984031;28;20049;-77
2023/06/23 09:47:05;;;;;;;5.35;3.40;;;26.60;99.90;;;;;;4998726;28;20394;-75
2023/06/23 09:49:45;;;;;;;6.30;3.08;;;26.50;99.90;;;;;;4998539;28;20093;-76
2023/06/23 09:52:21;;;;;;;5.90;2.80;;;26.80;99.90;;;;;;4981160;28;20089;-76
2023/06/23 09:54:47;;;;;;;4.25;2.55;;;26.90;99.90;;;;;;4981189;28;20506;-75
2023/06/23 09:57:15;;;;;;;3.22;2.38;;;26.70;99.90;;;;;;4984325;28;20120;-75
2023/06/23 09:59:42;;;;;;;4.13;2.50;;;26.70;99.80;;;;;;4984122;28;20050;-76
2023/06/23 10:02:18;;;;;;;5.65;2.67;;;26.60;99.40;;;;;;4983555;28;20076;-76
2023/06/23 10:04:45;;;;;;;6.05;3.38;;;26.70;99.80;;;;;;5002382;28;20053;-76
2023/06/23 10:07:21;;;;;;;7.57;3.70;;;26.60;99.90;;;;;;4985747;28;20482;-76
2023/06/23 10:09:55;;;;;;;5.85;3.10;;;26.70;99.30;;;;;;4987794;28;20108;-75
2023/06/23 10:12:27;;;;;;;5.18;2.30;;;26.50;99.90;;;;;;4985170;28;20141;-77
2023/06/23 10:14:55;;;;;;;8.43;3.47;;;26.50;99.90;;;;;;5001951;28;20049;-76
2023/06/23 10:17:22;;;;;;;5.20;3.08;;;26.60;99.90;;;;;;4986163;28;20050;-76
2023/06/23 10:19:49;;;;;;;7.15;3.40;;;26.70;99.90;;;;;;4987467;28;20096;-76
2023/06/23 10:22:18;;;;;;;8.27;3.10;;;26.90;99.90;;;;;;5004850;28;20544;-76
2023/06/23 10:24:50;;;;;;;6.18;2.65;;;26.80;99.90;;;;;;5001579;28;20053;-75
2023/06/23 10:27:35;;;;;;;8.02;3.00;;;26.90;99.90;;;;;;5001671;28;20130;-76
2023/06/23 10:30:03;;;;;;;4.93;2.78;;;26.60;99.30;;;;;;5001478;28;20070;-75
2023/06/23 10:32:30;;;;;;;7.05;2.75;;;26.80;99.90;;;;;;5002088;28;20034;-76
2023/06/23 10:34:59;;;;;;;6.15;2.90;;;26.90;99.90;;;;;;4987287;28;20050;-76
2023/06/23 10:37:26;;;;;;;4.95;3.00;;;26.90;99.90;;;;;;4986877;28;20092;-76
2023/06/23 10:39:57;;;;;;;5.72;2.90;;;26.80;99.60;;;;;;4983611;28;20502;-76
2023/06/23 10:42:24;;;;;;;4.65;2.78;;;26.70;99.90;;;;;;4984103;28;20449;-75
2023/06/23 10:44:51;;;;;;;5.72;3.38;;;26.60;99.80;;;;;;5003172;28;20042;-76
2023/06/23 10:47:17;;;;;;;6.00;2.30;;;26.30;99.30;;;;;;4987143;28;20129;-75
2023/06/23 10:49:45;;;;;;;4.15;2.58;;;26.70;99.00;;;;;;4986824;28;20141;-76
2023/06/23 10:52:12;;;;;;;3.92;2.53;;;26.70;99.50;;;;;;4983418;28;20383;-76
2023/06/23 10:54:38;;;;;;;4.15;2.30;;;26.70;97.60;;;;;;4983721;28;20149;-76
2023/06/23 10:57:11;;;;;;;6.53;2.40;;;26.80;98.60;;;;;;4985674;28;20474;-75
2023/06/23 10:59:42;;;;;;;8.10;3.00;;;26.80;99.00;;;;;;4986634;28;20822;-77
2023/06/23 11:02:18;;;;;;;5.50;2.60;;;27.00;98.60;;;;;;4984498;28;20058;-77
2023/06/23 11:05:01;;;;;;;12.30;2.80;;;26.60;97.80;;;;;;4983771;28;20054;-77
2023/06/23 11:07:27;;;;;;;4.43;2.72;;;26.70;97.60;;;;;;4983273;28;20053;-77
2023/06/23 11:09:58;;;;;;;7.75;2.70;;;26.60;98.90;;;;;;4983469;28;20069;-76
2023/06/23 11:12:31;;;;;;;4.30;2.53;;;26.50;98.20;;;;;;4985693;28;20542;-76
2023/06/23 11:15:10;;;;;;;4.97;2.53;;;26.40;97.60;;;;;;4986712;28;20497;-75
2023/06/23 11:18:01;;;;;;;5.03;2.97;;;26.70;97.40;;;;;;4967239;28;20050;-76
2023/06/23 11:20:32;;;;;;;5.32;2.70;;;26.60;97.70;;;;;;4985279;28;20049;-75
2023/06/23 11:23:13;;;;;;;3.28;2.28;;;26.60;97.90;;;;;;4986345;28;20046;-76
2023/06/23 11:25:47;;;;;;;4.75;2.40;;;26.90;96.80;;;;;;4983240;28;20414;-76
2023/06/23 11:28:27;;;;;;;9.95;2.55;;;26.90;97.50;;;;;;4983234;28;20042;-75
2023/06/23 11:31:15;;;;;;;4.05;1.80;;;26.70;93.60;;;;;;4982955;28;20558;-76
2023/06/23 11:33:58;;;;;;;6.90;2.47;;;26.80;95.60;;;;;;5002647;28;20410;-76
2023/06/23 11:36:26;;;;;;;5.00;2.08;;;26.70;94.60;;;;;;4985764;28;20050;-75
2023/06/23 11:38:53;;;;;;;4.38;2.10;;;27.00;95.90;;;;;;4999984;28;20054;-77
2023/06/23 11:41:28;;;;;;;4.72;2.28;;;26.80;95.10;;;;;;5000726;28;20053;-75
2023/06/23 11:43:58;;;;;;;3.72;1.88;;;26.80;93.60;;;;;;4966586;28;20053;-75
2023/06/23 11:46:24;;;;;;;3.95;2.00;;;26.70;94.40;;;;;;4982443;28;20057;-75
2023/06/23 11:48:50;;;;;;;5.70;2.10;;;26.90;93.70;;;;;;4983877;28;20394;-77
2023/06/23 11:51:17;;;;;;;4.43;1.98;;;26.90;93.30;;;;;;4985551;28;20054;-76
2023/06/23 11:53:45;;;;;;;2.95;1.67;;;26.80;93.00;;;;;;4985643;28;20042;-76
2023/06/23 11:56:15;;;;;;;3.15;1.90;;;26.80;91.70;;;;;;5000152;28;20449;-78
2023/06/23 11:58:41;;;;;;;2.85;1.70;;;26.60;89.20;;;;;;5000137;28;20065;-77
2023/06/23 12:01:08;;;;;;;4.47;2.08;;;26.60;92.70;;;;;;4984601;28;20046;-77
2023/06/23 12:03:36;;;;;;;3.90;2.08;;;26.80;92.70;;;;;;4968635;28;20465;-76
2023/06/23 12:06:02;;;;;;;3.80;2.10;;;27.00;92.10;;;;;;4984661;28;20062;-76
2023/06/23 12:08:28;;;;;;;2.40;1.40;;;27.10;92.60;;;;;;4982480;28;20398;-76
2023/06/23 12:10:55;;;;;;;4.05;2.17;;;27.40;92.40;;;;;;4982081;28;20530;-76
2023/06/23 12:13:21;;;;;;;6.30;1.77;;;27.40;91.80;;;;;;4984375;28;20057;-76
2023/06/23 12:15:47;;;;;;;4.68;2.10;;;27.40;91.80;;;;;;4985430;28;20417;-76
2023/06/23 12:18:13;;;;;;;4.20;2.10;;;27.30;92.20;;;;;;4984217;28;20060;-75
2023/06/23 12:20:41;;;;;;;4.80;2.20;;;27.20;92.70;;;;;;4999642;28;20050;-77
2023/06/23 12:23:10;;;;;;;7.30;2.00;;;27.20;91.20;;;;;;4999702;28;20050;-76
2023/06/23 12:25:42;;;;;;;3.33;1.70;;;27.20;92.30;;;;;;4984005;28;20402;-75
2023/06/23 12:28:21;;;;;;;3.60;2.15;;;27.30;91.80;;;;;;4984787;28;20072;-76
2023/06/23 12:30:49;;;;;;;3.45;2.00;;;27.10;91.40;;;;;;4999378;28;20077;-76
2023/06/23 12:33:25;;;;;;;4.45;2.08;;;27.20;92.70;;;;;;4999122;28;20046;-76
2023/06/23 12:35:58;;;;;;;5.22;2.00;;;27.70;92.90;;;;;;4982265;28;20461;-78
2023/06/23 12:38:24;;;;;;;5.07;2.37;;;27.60;92.00;;;;;;4981901;28;20061;-76
2023/06/23 12:40:51;;;;;;;4.30;2.08;;;27.60;92.30;;;;;;4981249;28;20298;-77
2023/06/23 12:43:20;;;;;;;5.72;2.28;;;27.70;92.40;;;;;;4983078;28;20038;-78
2023/06/23 12:45:49;;;;;;;4.97;2.10;;;27.60;91.90;;;;;;4981785;28;20046;-77
2023/06/23 12:48:19;;;;;;;5.97;2.10;;;27.40;91.60;;;;;;4979778;28;20038;-80
2023/06/23 12:50:45;;;;;;;5.40;2.30;;;27.00;91.40;;;;;;4979257;28;20506;-77